Time;durP1;ratioP1;P1;durP2;ratioP2;P2;SDS_P1;SDS_P2;PMS_P1;PMS_P2;Temp;Humidity;BMP_temperature;BMP_pressure;BME280_temperature;BME280_humidity;BME280_pressure;Samples;Min_cycle;Max_cycle;Signal;HPM_P1;HPM_P2
2022/12/19 00:01:05;;;;;;;45.23;27.57;;;;;;;;;;5083023;28;20522;-69
2022/12/19 00:03:32;;;;;;;45.83;27.20;;;;;;;;;;5101917;28;20689;-70
2022/12/19 00:06:00;;;;;;;41.07;25.73;;;;;;;;;;5101527;28;20472;-69
2022/12/19 00:08:26;;;;;;;44.33;24.60;;;;;;;;;;5083320;28;20454;-70
2022/12/19 00:10:57;;;;;;;52.00;27.90;;;;;;;;;;5083076;28;20407;-69
2022/12/19 00:13:23;;;;;;;45.27;27.60;;;;;;;;;;5100864;28;20661;-69
2022/12/19 00:15:49;;;;;;;48.20;27.57;;;;;;;;;;5082942;28;20414;-68
2022/12/19 00:18:15;;;;;;;44.73;28.20;;;;;;;;;;5083200;28;20465;-70
2022/12/19 00:20:41;;;;;;;43.90;25.63;;;;;;;;;;5082640;28;20185;-70
2022/12/19 00:23:07;;;;;;;44.00;27.23;;;;;;;;;;5104201;28;20287;-69
2022/12/19 00:25:33;;;;;;;42.90;27.70;;;;;;;;;;5101119;28;20184;-68
2022/12/19 00:27:59;;;;;;;43.40;23.87;;;;;;;;;;5100761;28;20454;-68
2022/12/19 00:30:25;;;;;;;43.67;27.90;;;;;;;;;;5082553;28;20182;-71
2022/12/19 00:32:50;;;;;;;49.10;27.63;;;;;;;;;;5100663;28;20324;-69
2022/12/19 00:35:16;;;;;;;41.47;25.33;;;;;;;;;;5082442;28;20501;-68
2022/12/19 00:37:42;;;;;;;45.90;29.13;;;;;;;;;;5082540;28;20581;-70
2022/12/19 00:40:09;;;;;;;46.37;27.67;;;;;;;;;;5082242;28;20189;-69
2022/12/19 00:42:35;;;;;;;45.60;29.50;;;;;;;;;;5082109;28;20491;-68
2022/12/19 00:45:00;;;;;;;46.90;29.00;;;;;;;;;;5100688;28;20415;-69
2022/12/19 00:47:26;;;;;;;43.03;26.97;;;;;;;;;;5082812;28;20177;-69
2022/12/19 00:49:52;;;;;;;50.17;28.27;;;;;;;;;;5083110;28;20268;-69
2022/12/19 00:52:18;;;;;;;47.33;28.03;;;;;;;;;;5083064;28;20258;-70
2022/12/19 00:54:44;;;;;;;39.87;24.73;;;;;;;;;;5082666;28;20180;-68
2022/12/19 00:57:10;;;;;;;44.23;27.90;;;;;;;;;;5082736;28;20184;-69
2022/12/19 00:59:36;;;;;;;46.87;27.73;;;;;;;;;;5101149;28;20620;-69
2022/12/19 01:02:02;;;;;;;45.13;28.60;;;;;;;;;;5082110;28;20201;-68
2022/12/19 01:04:28;;;;;;;47.33;26.13;;;;;;;;;;5098017;28;20181;-69
2022/12/19 01:06:54;;;;;;;50.47;28.60;;;;;;;;;;5079976;28;20188;-69
2022/12/19 01:09:21;;;;;;;49.97;28.63;;;;;;;;;;5097528;28;20212;-69
2022/12/19 01:14:31;;;;;;;39.43;25.60;;;;;;;;;;5098051;28;20445;-69
2022/12/19 01:16:57;;;;;;;46.67;28.60;;;;;;;;;;5078853;28;20406;-69
2022/12/19 01:19:23;;;;;;;48.37;27.10;;;;;;;;;;5078955;28;20554;-69
2022/12/19 01:21:49;;;;;;;39.20;24.07;;;;;;;;;;5078937;28;20185;-70
2022/12/19 01:24:15;;;;;;;52.33;29.67;;;;;;;;;;5078833;28;20230;-69
2022/12/19 01:26:41;;;;;;;45.47;28.63;;;;;;;;;;5097293;28;20186;-69
2022/12/19 01:29:07;;;;;;;49.97;29.03;;;;;;;;;;5096959;28;20288;-69
2022/12/19 01:31:33;;;;;;;50.83;30.43;;;;;;;;;;5097407;28;20211;-70
2022/12/19 01:34:00;;;;;;;48.47;29.93;;;;;;;;;;5079157;28;20204;-68
2022/12/19 01:36:26;;;;;;;50.93;29.93;;;;;;;;;;5097402;28;20414;-68
2022/12/19 01:38:54;;;;;;;53.20;30.70;;;;;;;;;;5079484;28;20419;-69
2022/12/19 01:41:20;;;;;;;51.13;29.93;;;;;;;;;;5097783;28;20181;-70
2022/12/19 01:43:55;;;;;;;49.00;28.70;;;;;;;;;;5081266;28;20466;-69
2022/12/19 01:46:25;;;;;;;50.30;28.97;;;;;;;;;;5092969;28;20181;-71
2022/12/19 01:48:52;;;;;;;44.03;25.77;;;;;;;;;;5110165;28;20969;-71
2022/12/19 01:51:19;;;;;;;48.07;28.80;;;;;;;;;;5111174;28;20410;-72
2022/12/19 01:53:53;;;;;;;48.20;29.83;;;;;;;;;;5084611;28;20457;-71
2022/12/19 01:56:24;;;;;;;48.23;29.20;;;;;;;;;;5100310;28;20413;-71
2022/12/19 01:58:52;;;;;;;47.80;29.53;;;;;;;;;;5080845;28;20403;-71
2022/12/19 02:01:18;;;;;;;44.53;27.70;;;;;;;;;;5100801;28;20411;-69
2022/12/19 02:03:45;;;;;;;52.47;30.23;;;;;;;;;;5081407;28;20840;-69
2022/12/19 02:06:12;;;;;;;46.50;27.27;;;;;;;;;;5098250;28;20411;-68
2022/12/19 02:08:39;;;;;;;42.37;26.73;;;;;;;;;;5079563;28;21008;-69
2022/12/19 02:11:05;;;;;;;49.37;29.80;;;;;;;;;;5079459;28;20419;-68
2022/12/19 02:13:31;;;;;;;47.37;29.13;;;;;;;;;;5096792;28;20573;-71
2022/12/19 02:15:58;;;;;;;46.83;28.37;;;;;;;;;;5096642;28;20177;-71
2022/12/19 02:18:42;;;;;;;49.73;28.40;;;;;;;;;;5096964;28;20261;-71
2022/12/19 02:21:26;;;;;;;45.40;27.47;;;;;;;;;;5096179;28;20407;-70
2022/12/19 02:24:11;;;;;;;46.97;28.70;;;;;;;;;;5077613;28;20495;-70
2022/12/19 02:26:37;;;;;;;44.10;27.37;;;;;;;;;;5096118;28;20504;-70
2022/12/19 02:29:11;;;;;;;46.23;26.60;;;;;;;;;;5095933;28;20488;-69
2022/12/19 02:31:48;;;;;;;39.30;24.07;;;;;;;;;;5096398;28;20172;-70
2022/12/19 02:34:33;;;;;;;45.60;24.93;;;;;;;;;;5095880;28;20395;-71
2022/12/19 02:37:03;;;;;;;44.47;27.93;;;;;;;;;;5095863;28;20424;-72
2022/12/19 02:39:33;;;;;;;47.63;26.70;;;;;;;;;;5095106;28;20467;-72
2022/12/19 02:42:00;;;;;;;43.17;27.20;;;;;;;;;;5095588;28;20500;-68
2022/12/19 02:44:49;;;;;;;45.83;27.57;;;;;;;;;;5096410;28;20434;-69
2022/12/19 02:47:16;;;;;;;43.77;26.70;;;;;;;;;;5087304;28;20427;-69
2022/12/19 02:49:42;;;;;;;41.93;26.90;;;;;;;;;;5095538;28;20581;-68
2022/12/19 02:52:09;;;;;;;41.13;25.17;;;;;;;;;;5078520;28;20446;-70
2022/12/19 02:54:35;;;;;;;44.03;25.23;;;;;;;;;;5095504;28;20407;-68
2022/12/19 02:57:09;;;;;;;43.37;25.77;;;;;;;;;;5095453;28;20772;-69
2022/12/19 02:59:43;;;;;;;39.87;24.23;;;;;;;;;;5095262;28;20253;-70
2022/12/19 03:02:13;;;;;;;37.73;22.27;;;;;;;;;;5095235;28;20430;-71
2022/12/19 03:04:58;;;;;;;36.93;23.47;;;;;;;;;;5094819;28;20161;-70
2022/12/19 03:07:31;;;;;;;42.33;25.77;;;;;;;;;;5076312;28;20439;-69
2022/12/19 03:10:03;;;;;;;39.53;24.53;;;;;;;;;;5077315;28;20460;-69
2022/12/19 03:12:32;;;;;;;42.30;24.23;;;;;;;;;;5095374;28;20974;-68
2022/12/19 03:14:59;;;;;;;39.03;24.17;;;;;;;;;;5094822;28;20840;-69
2022/12/19 03:17:25;;;;;;;35.63;21.43;;;;;;;;;;5094985;28;20408;-69
2022/12/19 03:19:51;;;;;;;38.17;22.83;;;;;;;;;;5095070;28;20406;-68
2022/12/19 03:22:17;;;;;;;41.87;25.37;;;;;;;;;;5076497;28;20431;-71
2022/12/19 03:24:43;;;;;;;39.83;24.47;;;;;;;;;;5076616;28;20181;-71
2022/12/19 03:27:12;;;;;;;42.73;26.10;;;;;;;;;;5094166;28;20180;-71
2022/12/19 03:29:40;;;;;;;39.90;23.00;;;;;;;;;;5094661;28;20472;-70
2022/12/19 03:32:08;;;;;;;38.83;23.27;;;;;;;;;;5076223;28;20815;-71
2022/12/19 03:34:38;;;;;;;43.53;25.77;;;;;;;;;;5094564;28;20410;-71
2022/12/19 03:37:07;;;;;;;43.03;27.47;;;;;;;;;;5076208;28;20448;-68
2022/12/19 03:39:33;;;;;;;38.50;25.50;;;;;;;;;;5077666;28;20407;-71
2022/12/19 03:44:46;;;;;;;39.70;25.60;;;;;;;;;;5095305;28;20784;-68
2022/12/19 03:47:20;;;;;;;37.80;23.03;;;;;;;;;;5076606;28;20411;-69
2022/12/19 03:49:47;;;;;;;33.23;18.77;;;;;;;;;;5076798;28;20434;-70
2022/12/19 03:52:22;;;;;;;38.80;23.80;;;;;;;;;;5094822;28;20435;-69
2022/12/19 03:54:58;;;;;;;45.80;26.53;;;;;;;;;;5094439;28;20415;-68
2022/12/19 03:57:51;;;;;;;41.47;25.50;;;;;;;;;;5094682;28;20813;-68
2022/12/19 04:00:17;;;;;;;40.67;26.03;;;;;;;;;;5073543;28;20426;-68
2022/12/19 04:02:45;;;;;;;43.03;25.93;;;;;;;;;;5076195;28;20435;-69
2022/12/19 04:05:14;;;;;;;40.33;24.67;;;;;;;;;;5094184;28;20415;-68
2022/12/19 04:07:41;;;;;;;38.63;24.97;;;;;;;;;;5094504;28;20904;-68
2022/12/19 04:10:09;;;;;;;43.63;25.67;;;;;;;;;;5076227;28;20923;-69
2022/12/19 04:12:37;;;;;;;40.90;25.57;;;;;;;;;;5094011;28;20197;-68
2022/12/19 04:15:04;;;;;;;46.60;27.07;;;;;;;;;;5075574;28;20412;-69
2022/12/19 04:17:39;;;;;;;45.93;28.97;;;;;;;;;;5076209;28;20414;-68
2022/12/19 04:20:10;;;;;;;41.87;26.97;;;;;;;;;;5075817;28;20403;-68
2022/12/19 04:22:41;;;;;;;50.83;27.60;;;;;;;;;;5075550;28;20498;-69
2022/12/19 04:25:10;;;;;;;44.20;27.77;;;;;;;;;;5075671;28;20415;-68
2022/12/19 04:27:38;;;;;;;48.93;29.17;;;;;;;;;;5093889;28;20176;-68
2022/12/19 04:30:04;;;;;;;46.23;28.17;;;;;;;;;;5100629;28;20435;-69
2022/12/19 04:32:32;;;;;;;44.73;27.73;;;;;;;;;;5094178;28;20422;-68
2022/12/19 04:34:58;;;;;;;52.57;29.50;;;;;;;;;;5094419;28;20433;-69
2022/12/19 04:37:24;;;;;;;50.23;29.27;;;;;;;;;;5075822;28;20446;-69
2022/12/19 04:39:50;;;;;;;49.90;28.30;;;;;;;;;;5095461;28;20395;-69
2022/12/19 04:42:16;;;;;;;51.20;28.77;;;;;;;;;;5097920;28;20688;-69
2022/12/19 04:44:42;;;;;;;48.70;28.30;;;;;;;;;;5080062;28;20177;-69
2022/12/19 04:47:08;;;;;;;46.53;29.27;;;;;;;;;;5098049;28;20637;-69
2022/12/19 04:49:34;;;;;;;48.50;29.07;;;;;;;;;;5098112;28;20696;-69
2022/12/19 04:52:00;;;;;;;50.33;29.73;;;;;;;;;;5097826;28;20720;-69
2022/12/19 04:54:26;;;;;;;48.17;29.77;;;;;;;;;;5098321;28;20196;-68
2022/12/19 04:56:53;;;;;;;53.10;31.47;;;;;;;;;;5080541;28;20907;-68
2022/12/19 04:59:19;;;;;;;53.33;31.17;;;;;;;;;;5097662;28;20177;-69
2022/12/19 05:01:44;;;;;;;52.97;30.90;;;;;;;;;;5099300;28;20445;-68
2022/12/19 05:04:10;;;;;;;55.23;31.70;;;;;;;;;;5098824;28;20185;-69
2022/12/19 05:06:36;;;;;;;49.87;29.73;;;;;;;;;;5098445;28;20215;-68
2022/12/19 05:09:03;;;;;;;52.67;30.40;;;;;;;;;;5098856;28;20258;-69
2022/12/19 05:11:29;;;;;;;62.30;33.73;;;;;;;;;;5099184;28;20252;-68
2022/12/19 05:13:55;;;;;;;65.13;33.33;;;;;;;;;;5109817;28;20200;-69
2022/12/19 05:16:21;;;;;;;56.07;31.97;;;;;;;;;;5111818;28;20683;-68
2022/12/19 05:18:47;;;;;;;55.60;30.87;;;;;;;;;;5113405;28;20412;-68
2022/12/19 05:21:13;;;;;;;59.93;33.80;;;;;;;;;;5112995;28;20185;-70
2022/12/19 05:23:39;;;;;;;53.10;31.90;;;;;;;;;;5095055;28;20619;-71
2022/12/19 05:26:05;;;;;;;53.47;32.73;;;;;;;;;;5090924;28;20264;-69
2022/12/19 05:28:32;;;;;;;51.20;28.97;;;;;;;;;;5088573;28;20226;-68
2022/12/19 05:31:05;;;;;;;57.20;32.73;;;;;;;;;;5107982;28;20433;-68
2022/12/19 05:33:31;;;;;;;66.07;33.03;;;;;;;;;;5105141;28;20249;-69
2022/12/19 05:35:56;;;;;;;60.60;32.30;;;;;;;;;;5079370;28;20211;-68
2022/12/19 05:38:22;;;;;;;66.73;35.77;;;;;;;;;;5097603;28;20178;-69
2022/12/19 05:40:48;;;;;;;63.60;35.23;;;;;;;;;;5098119;28;20191;-68
2022/12/19 05:43:14;;;;;;;66.87;37.27;;;;;;;;;;5097334;28;20217;-69
2022/12/19 05:45:40;;;;;;;60.93;31.83;;;;;;;;;;5080096;28;20262;-69
2022/12/19 05:48:06;;;;;;;64.93;34.63;;;;;;;;;;5080016;28;20266;-70
2022/12/19 05:50:32;;;;;;;64.30;35.40;;;;;;;;;;5097951;28;20173;-69
2022/12/19 05:52:58;;;;;;;67.40;38.23;;;;;;;;;;5097945;28;20201;-68
2022/12/19 05:55:24;;;;;;;55.30;30.73;;;;;;;;;;5098176;28;20197;-68
2022/12/19 05:57:50;;;;;;;63.93;34.60;;;;;;;;;;5079339;28;20181;-68
2022/12/19 06:00:16;;;;;;;66.80;37.87;;;;;;;;;;5077951;28;20177;-69
2022/12/19 06:02:42;;;;;;;65.93;34.70;;;;;;;;;;5078358;28;20205;-70
2022/12/19 06:05:08;;;;;;;72.97;37.50;;;;;;;;;;5096411;28;20425;-68
2022/12/19 06:07:34;;;;;;;74.77;38.63;;;;;;;;;;5096498;28;20242;-69
2022/12/19 06:10:00;;;;;;;71.60;39.60;;;;;;;;;;5078606;28;20764;-69
2022/12/19 06:12:26;;;;;;;74.37;39.93;;;;;;;;;;5096161;28;20449;-69
2022/12/19 06:14:52;;;;;;;65.67;37.83;;;;;;;;;;5078073;28;20181;-69
2022/12/19 06:17:18;;;;;;;65.67;35.93;;;;;;;;;;5096518;28;20182;-70
2022/12/19 06:19:44;;;;;;;69.63;36.80;;;;;;;;;;5077635;28;20280;-70
2022/12/19 06:22:10;;;;;;;66.10;37.27;;;;;;;;;;5095544;28;20838;-69
2022/12/19 06:24:36;;;;;;;71.27;36.50;;;;;;;;;;5095759;28;20177;-69
2022/12/19 06:27:02;;;;;;;67.57;37.33;;;;;;;;;;5077651;28;20276;-69
2022/12/19 06:29:28;;;;;;;66.00;35.73;;;;;;;;;;5095744;28;20265;-69
2022/12/19 06:31:54;;;;;;;64.60;36.30;;;;;;;;;;5096108;28;20184;-69
2022/12/19 06:34:21;;;;;;;69.17;35.80;;;;;;;;;;5095536;28;20197;-70
2022/12/19 06:36:47;;;;;;;70.57;35.50;;;;;;;;;;5095874;28;20446;-69
2022/12/19 06:39:13;;;;;;;68.27;36.37;;;;;;;;;;5095723;28;20411;-69
2022/12/19 06:44:24;;;;;;;65.80;34.77;;;;;;;;;;5096686;28;20562;-69
2022/12/19 06:46:51;;;;;;;66.87;35.50;;;;;;;;;;5077664;28;20181;-69
2022/12/19 06:49:17;;;;;;;60.50;29.13;;;;;;;;;;5077464;28;20204;-69
2022/12/19 06:51:43;;;;;;;68.87;35.93;;;;;;;;;;5077530;28;20422;-69
2022/12/19 06:54:10;;;;;;;66.00;35.30;;;;;;;;;;5077314;28;20173;-69
2022/12/19 06:56:37;;;;;;;68.70;36.03;;;;;;;;;;5077166;28;20703;-69
2022/12/19 06:59:03;;;;;;;64.43;35.70;;;;;;;;;;5082174;28;20177;-69
2022/12/19 07:01:37;;;;;;;63.10;34.27;;;;;;;;;;5095040;28;20173;-70
2022/12/19 07:04:04;;;;;;;64.57;35.73;;;;;;;;;;5077091;28;20946;-69
2022/12/19 07:06:30;;;;;;;73.93;34.83;;;;;;;;;;5095634;28;20246;-69
2022/12/19 07:08:56;;;;;;;74.53;36.87;;;;;;;;;;5095544;28;20969;-69
2022/12/19 07:11:22;;;;;;;67.90;35.80;;;;;;;;;;5076718;28;20222;-69
2022/12/19 07:13:48;;;;;;;69.60;35.53;;;;;;;;;;5077115;28;20435;-69
2022/12/19 07:16:14;;;;;;;66.20;38.33;;;;;;;;;;5077089;28;20437;-69
2022/12/19 07:18:40;;;;;;;67.57;35.43;;;;;;;;;;5077624;28;20553;-69
2022/12/19 07:21:07;;;;;;;71.33;36.57;;;;;;;;;;5076951;28;20343;-69
2022/12/19 07:23:34;;;;;;;61.07;33.67;;;;;;;;;;5076909;28;20204;-69
2022/12/19 07:26:00;;;;;;;61.53;34.03;;;;;;;;;;5095071;28;20256;-69
2022/12/19 07:28:26;;;;;;;62.10;34.27;;;;;;;;;;5077045;28;20458;-69
2022/12/19 07:30:52;;;;;;;64.13;33.73;;;;;;;;;;5077063;28;20181;-72
2022/12/19 07:33:18;;;;;;;68.63;33.70;;;;;;;;;;5076630;28;20460;-70
2022/12/19 07:35:44;;;;;;;71.40;37.20;;;;;;;;;;5076625;28;20185;-70
2022/12/19 07:38:10;;;;;;;68.53;33.87;;;;;;;;;;5076545;28;20188;-70
2022/12/19 07:40:36;;;;;;;61.73;33.47;;;;;;;;;;5094626;28;20216;-70
2022/12/19 07:43:02;;;;;;;60.50;32.77;;;;;;;;;;5094685;28;20220;-70
2022/12/19 07:45:28;;;;;;;58.57;30.63;;;;;;;;;;5076507;28;20199;-70
2022/12/19 07:47:54;;;;;;;60.20;32.47;;;;;;;;;;5096476;28;20497;-69
2022/12/19 07:50:21;;;;;;;60.60;32.27;;;;;;;;;;5094956;28;20192;-70
2022/12/19 07:52:47;;;;;;;63.77;33.37;;;;;;;;;;5076543;28;20232;-70
2022/12/19 07:55:13;;;;;;;59.30;32.13;;;;;;;;;;5094708;28;20174;-70
2022/12/19 07:57:39;;;;;;;54.53;30.73;;;;;;;;;;5094774;28;20668;-70
2022/12/19 08:00:05;;;;;;;54.30;32.10;;;;;;;;;;5094560;28;20252;-70
2022/12/19 08:02:31;;;;;;;58.23;32.77;;;;;;;;;;5094493;28;20275;-71
2022/12/19 08:04:58;;;;;;;68.67;35.63;;;;;;;;;;5094356;28;20165;-70
2022/12/19 08:07:23;;;;;;;60.43;32.87;;;;;;;;;;5094825;28;20663;-70
2022/12/19 08:09:49;;;;;;;59.17;32.20;;;;;;;;;;5094178;28;20197;-70
2022/12/19 08:12:15;;;;;;;58.43;32.50;;;;;;;;;;5094102;28;20193;-70
2022/12/19 08:14:41;;;;;;;56.07;31.90;;;;;;;;;;5079457;28;20180;-70
2022/12/19 08:17:08;;;;;;;69.40;36.90;;;;;;;;;;5080003;28;20173;-70
2022/12/19 08:19:34;;;;;;;61.43;33.97;;;;;;;;;;5080363;28;20536;-70
2022/12/19 08:22:00;;;;;;;56.77;32.97;;;;;;;;;;5084438;28;20181;-70
2022/12/19 08:24:26;;;;;;;56.40;31.57;;;;;;;;;;5100347;28;20176;-70
2022/12/19 08:26:52;;;;;;;58.00;33.83;;;;;;;;;;5081484;28;20579;-70
2022/12/19 08:29:18;;;;;;;59.43;34.53;;;;;;;;;;5079715;28;20204;-71
2022/12/19 08:31:44;;;;;;;58.77;33.97;;;;;;;;;;5079491;28;20223;-70
2022/12/19 08:34:10;;;;;;;55.97;33.77;;;;;;;;;;5097937;28;20173;-70
2022/12/19 08:36:38;;;;;;;58.20;34.10;;;;;;;;;;5100489;28;20180;-70
2022/12/19 08:39:04;;;;;;;57.17;36.27;;;;;;;;;;5098199;28;20242;-70
2022/12/19 08:41:30;;;;;;;56.37;32.20;;;;;;;;;;5080155;28;20640;-71
2022/12/19 08:43:56;;;;;;;56.93;34.63;;;;;;;;;;5097850;28;20216;-70
2022/12/19 08:46:22;;;;;;;59.57;34.63;;;;;;;;;;5097521;28;20184;-70
2022/12/19 08:48:48;;;;;;;60.97;33.30;;;;;;;;;;5098228;28;20215;-70
2022/12/19 08:51:15;;;;;;;56.23;31.53;;;;;;;;;;5079762;28;20776;-70
2022/12/19 08:53:42;;;;;;;50.70;31.23;;;;;;;;;;5097796;28;20201;-69
2022/12/19 08:56:18;;;;;;;48.33;30.20;;;;;;;;;;5098548;28;20182;-69
2022/12/19 08:58:44;;;;;;;53.73;32.73;;;;;;;;;;5098877;28;20176;-70
2022/12/19 09:01:13;;;;;;;61.23;34.10;;;;;;;;;;5080109;28;20177;-70
2022/12/19 09:03:39;;;;;;;55.97;34.13;;;;;;;;;;5079032;28;20209;-69
2022/12/19 09:06:06;;;;;;;52.57;32.03;;;;;;;;;;5098095;28;20183;-71
2022/12/19 09:08:34;;;;;;;49.37;32.67;;;;;;;;;;5097651;28;20287;-69
2022/12/19 09:11:01;;;;;;;55.67;32.00;;;;;;;;;;5098044;28;20173;-69
2022/12/19 09:13:27;;;;;;;49.00;29.23;;;;;;;;;;5096932;28;20197;-71
2022/12/19 09:16:00;;;;;;;55.93;33.67;;;;;;;;;;5078811;28;20268;-69
2022/12/19 09:18:26;;;;;;;51.93;32.07;;;;;;;;;;5078851;28;20189;-70
2022/12/19 09:20:54;;;;;;;55.50;34.47;;;;;;;;;;5079059;28;20207;-69
2022/12/19 09:23:20;;;;;;;54.90;32.53;;;;;;;;;;5079001;28;20205;-70
2022/12/19 09:25:46;;;;;;;52.90;31.67;;;;;;;;;;5078124;28;20199;-69
2022/12/19 09:28:12;;;;;;;50.77;30.10;;;;;;;;;;5081258;28;20681;-69
2022/12/19 09:30:38;;;;;;;55.60;33.23;;;;;;;;;;5079412;28;20605;-70
2022/12/19 09:33:04;;;;;;;47.10;28.93;;;;;;;;;;5096741;28;20226;-70
2022/12/19 09:35:30;;;;;;;44.83;29.03;;;;;;;;;;5078622;28;20206;-69
2022/12/19 09:37:57;;;;;;;46.20;29.07;;;;;;;;;;5078601;28;20268;-70
2022/12/19 09:40:23;;;;;;;51.90;30.50;;;;;;;;;;5078761;28;20188;-71
2022/12/19 09:43:11;;;;;;;49.03;28.90;;;;;;;;;;5078480;28;20220;-71
2022/12/19 09:45:50;;;;;;;46.47;27.40;;;;;;;;;;5096775;28;20219;-71
2022/12/19 09:48:17;;;;;;;44.83;27.37;;;;;;;;;;5097294;28;20192;-71
2022/12/19 09:50:46;;;;;;;42.87;28.77;;;;;;;;;;5078686;28;20173;-70
2022/12/19 09:53:17;;;;;;;39.37;25.20;;;;;;;;;;5096311;28;20210;-71
2022/12/19 09:55:44;;;;;;;43.37;27.07;;;;;;;;;;5096420;28;20198;-68
2022/12/19 09:58:13;;;;;;;40.87;26.00;;;;;;;;;;5096818;28;20270;-69
2022/12/19 10:00:42;;;;;;;41.43;29.03;;;;;;;;;;5096212;28;20181;-69
2022/12/19 10:03:14;;;;;;;45.70;28.27;;;;;;;;;;5077987;28;20688;-69
2022/12/19 10:05:42;;;;;;;42.03;26.93;;;;;;;;;;5095969;28;20541;-68
2022/12/19 10:08:15;;;;;;;45.57;28.20;;;;;;;;;;5077599;28;20219;-69
2022/12/19 10:10:50;;;;;;;44.67;27.47;;;;;;;;;;5095917;28;20168;-69
2022/12/19 10:13:25;;;;;;;43.77;27.23;;;;;;;;;;5077252;28;20228;-69
2022/12/19 10:16:00;;;;;;;40.27;26.57;;;;;;;;;;5078094;28;20719;-69
2022/12/19 10:18:36;;;;;;;40.90;26.10;;;;;;;;;;5084734;28;20176;-69
2022/12/19 10:21:05;;;;;;;40.50;25.73;;;;;;;;;;5078662;28;20172;-71
2022/12/19 10:23:49;;;;;;;43.37;27.37;;;;;;;;;;5095534;28;20231;-70
2022/12/19 10:26:22;;;;;;;41.10;26.87;;;;;;;;;;5095509;28;20645;-69
2022/12/19 10:28:57;;;;;;;41.43;27.23;;;;;;;;;;5095429;28;20196;-72
2022/12/19 10:31:33;;;;;;;45.03;27.13;;;;;;;;;;5110426;22;20216;-70
2022/12/19 10:34:18;;;;;;;45.23;28.00;;;;;;;;;;5103859;28;20172;-70
2022/12/19 10:36:45;;;;;;;48.30;28.00;;;;;;;;;;5102745;28;20189;-70
2022/12/19 10:39:20;;;;;;;42.07;27.60;;;;;;;;;;5102728;28;20246;-71
2022/12/19 10:41:49;;;;;;;40.33;26.73;;;;;;;;;;5100594;28;20196;-71
2022/12/19 10:44:15;;;;;;;35.40;23.77;;;;;;;;;;5102535;28;20687;-70
2022/12/19 10:46:45;;;;;;;39.93;25.93;;;;;;;;;;5101754;28;20256;-72
2022/12/19 10:49:15;;;;;;;38.17;24.33;;;;;;;;;;5101576;28;20201;-71
2022/12/19 10:51:41;;;;;;;35.10;24.23;;;;;;;;;;5100590;28;20672;-72
2022/12/19 10:54:08;;;;;;;32.50;23.97;;;;;;;;;;5100602;28;20256;-73
2022/12/19 10:56:34;;;;;;;38.57;24.07;;;;;;;;;;5100366;28;20597;-73
2022/12/19 10:59:00;;;;;;;37.40;22.27;;;;;;;;;;5098217;28;20251;-71
2022/12/19 11:01:27;;;;;;;34.90;24.03;;;;;;;;;;5100826;28;20222;-72
2022/12/19 11:04:12;;;;;;;37.23;23.20;;;;;;;;;;5098860;28;20184;-71
2022/12/19 11:06:47;;;;;;;34.83;24.43;;;;;;;;;;5099622;28;20177;-71
2022/12/19 11:09:17;;;;;;;34.23;22.83;;;;;;;;;;5099789;28;20226;-72
2022/12/19 11:11:43;;;;;;;32.87;23.43;;;;;;;;;;5094769;28;20204;-72
2022/12/19 11:14:20;;;;;;;37.57;23.40;;;;;;;;;;5095633;28;20177;-73
2022/12/19 11:16:46;;;;;;;34.97;22.73;;;;;;;;;;5094958;28;20205;-72
2022/12/19 11:19:20;;;;;;;30.73;21.77;;;;;;;;;;5095360;28;20181;-71
2022/12/19 11:21:46;;;;;;;34.23;22.73;;;;;;;;;;5094828;28;20201;-71
2022/12/19 11:24:17;;;;;;;33.07;21.83;;;;;;;;;;5094207;28;20187;-71
2022/12/19 11:26:48;;;;;;;32.00;22.83;;;;;;;;;;5094459;28;20165;-70
2022/12/19 11:29:23;;;;;;;29.90;21.53;;;;;;;;;;5093032;28;20197;-70
2022/12/19 11:31:54;;;;;;;31.30;21.97;;;;;;;;;;5092788;28;20230;-71
2022/12/19 11:34:22;;;;;;;29.83;21.47;;;;;;;;;;5094033;28;20618;-71
2022/12/19 11:36:51;;;;;;;31.83;21.73;;;;;;;;;;5095009;28;20212;-71
2022/12/19 11:39:26;;;;;;;33.33;22.87;;;;;;;;;;5092724;28;20181;-70
2022/12/19 11:42:11;;;;;;;32.10;21.17;;;;;;;;;;5092961;28;20687;-71
2022/12/19 11:44:40;;;;;;;34.07;22.10;;;;;;;;;;5092952;28;20191;-71
2022/12/19 11:47:18;;;;;;;30.90;21.67;;;;;;;;;;5092880;28;20192;-70
2022/12/19 11:49:46;;;;;;;33.73;22.60;;;;;;;;;;5093381;28;20231;-71
2022/12/19 11:52:24;;;;;;;33.03;21.23;;;;;;;;;;5092816;28;20293;-70
2022/12/19 11:54:56;;;;;;;32.27;21.47;;;;;;;;;;5094444;28;20248;-71
2022/12/19 11:57:22;;;;;;;39.33;23.20;;;;;;;;;;5094348;28;20188;-72
2022/12/19 11:59:48;;;;;;;31.00;21.73;;;;;;;;;;5094539;28;20181;-71
2022/12/19 12:02:20;;;;;;;36.93;23.97;;;;;;;;;;5093031;28;20335;-71
2022/12/19 12:05:05;;;;;;;31.17;21.90;;;;;;;;;;5094269;28;20177;-73
2022/12/19 12:07:35;;;;;;;32.87;22.73;;;;;;;;;;5093608;28;20645;-69
2022/12/19 12:10:22;;;;;;;29.13;20.67;;;;;;;;;;5094298;28;20683;-71
2022/12/19 12:12:54;;;;;;;28.43;20.13;;;;;;;;;;5093903;28;20157;-70
2022/12/19 12:15:23;;;;;;;29.83;20.43;;;;;;;;;;5092093;28;20169;-70
2022/12/19 12:18:02;;;;;;;30.03;21.27;;;;;;;;;;5093240;28;20173;-71
2022/12/19 12:20:28;;;;;;;26.13;19.60;;;;;;;;;;5093456;28;20667;-71
2022/12/19 12:23:06;;;;;;;29.43;21.13;;;;;;;;;;5092164;28;20208;-72
2022/12/19 12:25:41;;;;;;;32.03;19.93;;;;;;;;;;5093848;28;20161;-71
2022/12/19 12:28:36;;;;;;;32.20;20.40;;;;;;;;;;5094393;28;20201;-70
2022/12/19 12:31:22;;;;;;;24.93;19.40;;;;;;;;;;5084558;28;20273;-71
2022/12/19 12:34:07;;;;;;;24.77;18.90;;;;;;;;;;5093255;28;20220;-71
2022/12/19 12:36:32;;;;;;;27.47;18.40;;;;;;;;;;5094191;28;20181;-70
2022/12/19 12:39:12;;;;;;;24.23;17.93;;;;;;;;;;5092405;28;20181;-70
2022/12/19 12:42:02;;;;;;;29.00;19.50;;;;;;;;;;5093531;28;20200;-71
2022/12/19 12:44:30;;;;;;;23.70;17.03;;;;;;;;;;5092048;28;20177;-70
2022/12/19 12:47:00;;;;;;;29.20;18.10;;;;;;;;;;5091944;28;20181;-71
2022/12/19 12:49:38;;;;;;;24.10;16.63;;;;;;;;;;5093849;28;20197;-69
2022/12/19 12:52:06;;;;;;;23.43;16.80;;;;;;;;;;5091926;28;20222;-69
2022/12/19 12:54:37;;;;;;;22.23;16.63;;;;;;;;;;5093275;28;20256;-70
2022/12/19 12:57:03;;;;;;;21.40;15.63;;;;;;;;;;5092025;28;20204;-70
2022/12/19 12:59:30;;;;;;;22.10;16.53;;;;;;;;;;5093433;28;20197;-68
2022/12/19 13:02:00;;;;;;;25.17;16.80;;;;;;;;;;5096379;28;20197;-70
2022/12/19 13:04:27;;;;;;;21.27;16.10;;;;;;;;;;5096635;28;20592;-70
2022/12/19 13:06:53;;;;;;;22.00;16.07;;;;;;;;;;5095513;28;20268;-72
2022/12/19 13:09:34;;;;;;;21.27;15.67;;;;;;;;;;5095237;28;20283;-70
2022/12/19 13:14:48;;;;;;;21.10;16.20;;;;;;;;;;5097493;28;20176;-70
2022/12/19 13:17:19;;;;;;;22.73;14.80;;;;;;;;;;5096835;28;20653;-71
2022/12/19 13:20:14;;;;;;;22.17;15.43;;;;;;;;;;5096552;28;20172;-70
2022/12/19 13:22:42;;;;;;;26.97;16.00;;;;;;;;;;5096820;28;20169;-70
2022/12/19 13:25:30;;;;;;;23.03;15.53;;;;;;;;;;5096088;28;20181;-69
2022/12/19 13:28:02;;;;;;;19.87;14.90;;;;;;;;;;5094890;28;20177;-70
2022/12/19 13:30:31;;;;;;;20.53;13.53;;;;;;;;;;5095907;28;20209;-71
2022/12/19 13:33:00;;;;;;;19.67;14.77;;;;;;;;;;5095981;28;20162;-71
2022/12/19 13:35:28;;;;;;;20.53;14.77;;;;;;;;;;5096399;28;20181;-70
2022/12/19 13:38:01;;;;;;;20.07;14.77;;;;;;;;;;5096359;28;20191;-70
2022/12/19 13:40:30;;;;;;;22.50;15.20;;;;;;;;;;5096721;28;20247;-70
2022/12/19 13:45:51;;;;;;;20.37;14.77;;;;;;;;;;5096935;28;20242;-69
2022/12/19 13:48:23;;;;;;;18.87;14.23;;;;;;;;;;5096623;28;20197;-69
2022/12/19 13:50:49;;;;;;;16.83;13.67;;;;;;;;;;5097490;28;20254;-72
2022/12/19 13:53:16;;;;;;;17.87;13.83;;;;;;;;;;5096393;28;20201;-70
2022/12/19 13:55:42;;;;;;;20.03;13.70;;;;;;;;;;5096001;28;20627;-70
2022/12/19 13:58:20;;;;;;;17.73;13.57;;;;;;;;;;5094772;28;20606;-71
2022/12/19 14:00:46;;;;;;;21.10;14.00;;;;;;;;;;5095905;28;20226;-68
2022/12/19 14:03:17;;;;;;;17.27;13.47;;;;;;;;;;5094353;28;20267;-69
2022/12/19 14:05:43;;;;;;;22.30;13.77;;;;;;;;;;5094323;28;20185;-70
2022/12/19 14:08:11;;;;;;;19.27;13.70;;;;;;;;;;5095377;28;20200;-69
2022/12/19 14:10:41;;;;;;;21.20;13.53;;;;;;;;;;5093976;28;20288;-71
2022/12/19 14:15:56;;;;;;;19.03;13.60;;;;;;;;;;5095551;28;20181;-69
2022/12/19 14:18:23;;;;;;;18.43;13.37;;;;;;;;;;5093966;28;20574;-70
2022/12/19 14:20:50;;;;;;;18.23;14.37;;;;;;;;;;5095427;28;20197;-70
2022/12/19 14:23:16;;;;;;;19.87;13.43;;;;;;;;;;5094099;28;20535;-69
2022/12/19 14:25:45;;;;;;;20.03;13.90;;;;;;;;;;5095767;28;20184;-70
2022/12/19 14:28:14;;;;;;;19.83;14.40;;;;;;;;;;5094962;28;20229;-69
2022/12/19 14:30:41;;;;;;;20.47;13.80;;;;;;;;;;5094868;28;20669;-70
2022/12/19 14:33:10;;;;;;;18.00;12.93;;;;;;;;;;5095290;28;20181;-69
2022/12/19 14:35:44;;;;;;;16.67;12.97;;;;;;;;;;5094867;28;20629;-70
2022/12/19 14:38:14;;;;;;;19.30;13.80;;;;;;;;;;5093908;28;20177;-69
2022/12/19 14:40:40;;;;;;;19.27;13.87;;;;;;;;;;5093566;28;20205;-70
2022/12/19 14:43:38;;;;;;;17.70;12.93;;;;;;;;;;5095326;28;20552;-70